createdAt,value
2023-05-19T00:01:28.785Z,11.10
2023-05-19T00:03:58.331Z,10.90
2023-05-19T00:06:26.864Z,10.90
2023-05-19T00:08:57.746Z,10.90
2023-05-19T00:11:25.831Z,11.20
2023-05-19T00:13:53.653Z,11.00
2023-05-19T00:16:21.605Z,11.00
2023-05-19T00:18:48.400Z,10.50
2023-05-19T00:21:16.035Z,10.90
2023-05-19T00:23:43.091Z,10.80
2023-05-19T00:26:09.881Z,10.80
2023-05-19T00:28:36.668Z,10.80
2023-05-19T00:31:05.047Z,10.70
2023-05-19T00:33:33.150Z,10.70
2023-05-19T00:36:00.134Z,10.70
2023-05-19T00:38:27.537Z,10.70
2023-05-19T00:40:54.357Z,10.80
2023-05-19T00:43:21.147Z,10.70
2023-05-19T00:45:47.988Z,10.70
2023-05-19T00:48:14.803Z,10.60
2023-05-19T00:50:41.777Z,10.60
2023-05-19T00:53:08.819Z,10.60
2023-05-19T00:55:37.706Z,10.50
2023-05-19T00:58:05.241Z,10.50
2023-05-19T01:00:32.258Z,10.50
2023-05-19T01:02:59.344Z,10.70
2023-05-19T01:05:26.812Z,10.50
2023-05-19T01:07:55.722Z,10.20
2023-05-19T01:10:22.980Z,10.50
2023-05-19T01:12:50.487Z,10.10
2023-05-19T01:15:17.289Z,10.40
2023-05-19T01:17:54.211Z,10.50
2023-05-19T01:20:26.681Z,10.40
2023-05-19T01:23:26.532Z,10.40
2023-05-19T01:26:16.259Z,10.40
2023-05-19T01:29:10.463Z,10.40
2023-05-19T01:31:39.412Z,10.50
2023-05-19T01:34:07.171Z,10.40
2023-05-19T01:36:34.544Z,10.40
2023-05-19T01:39:03.258Z,10.40
2023-05-19T01:41:31.951Z,10.40
2023-05-19T01:43:58.894Z,10.10
2023-05-19T01:46:25.677Z,10.40
2023-05-19T01:48:54.356Z,10.30
2023-05-19T01:51:21.103Z,10.30
2023-05-19T01:53:48.027Z,10.30
2023-05-19T01:56:21.790Z,10.10
2023-05-19T01:58:52.834Z,10.20
2023-05-19T02:01:29.534Z,10.50
2023-05-19T02:04:11.203Z,10.20
2023-05-19T02:06:45.386Z,10.50
2023-05-19T02:09:16.056Z,10.40
2023-05-19T02:11:51.425Z,10.20
2023-05-19T02:14:21.189Z,10.10
2023-05-19T02:16:48.929Z,10.10
2023-05-19T02:19:27.084Z,10.30
2023-05-19T02:21:54.000Z,10.00
2023-05-19T02:24:22.081Z,10.00
2023-05-19T02:26:48.846Z,10.20
2023-05-19T02:29:15.824Z,10.00
2023-05-19T02:31:42.582Z,10.00
2023-05-19T02:34:09.573Z,10.00
2023-05-19T02:36:40.325Z,9.60
2023-05-19T02:41:34.966Z,9.80
2023-05-19T02:44:01.687Z,9.80
2023-05-19T02:46:28.427Z,9.90
2023-05-19T02:48:55.844Z,9.90
2023-05-19T02:51:22.628Z,9.90
2023-05-19T02:53:50.414Z,10.00
2023-05-19T02:56:17.126Z,9.90
2023-05-19T02:58:44.153Z,10.20
2023-05-19T03:01:11.472Z,10.00
2023-05-19T03:03:38.342Z,10.10
2023-05-19T03:06:07.996Z,10.10
2023-05-19T03:08:35.156Z,9.90
2023-05-19T03:11:02.737Z,10.10
2023-05-19T03:13:29.403Z,10.10
2023-05-19T03:15:58.059Z,10.10
2023-05-19T03:18:25.510Z,10.00
2023-05-19T03:20:53.298Z,10.10
2023-05-19T03:23:20.123Z,10.10
2023-05-19T03:25:47.082Z,10.00
2023-05-19T03:28:14.461Z,10.00
2023-05-19T03:30:41.128Z,9.90
2023-05-19T03:33:07.997Z,10.00
2023-05-19T03:35:34.951Z,10.00
2023-05-19T03:38:01.632Z,10.00
2023-05-19T03:40:28.361Z,10.00
2023-05-19T03:42:55.052Z,10.10
2023-05-19T03:45:22.465Z,10.30
2023-05-19T03:47:49.168Z,10.10
2023-05-19T03:50:15.988Z,10.20
2023-05-19T03:52:44.746Z,10.50
2023-05-19T03:55:11.469Z,10.30
2023-05-19T03:57:38.183Z,10.40
2023-05-19T04:00:06.378Z,10.50
2023-05-19T04:02:34.192Z,10.50
2023-05-19T04:05:00.940Z,10.70
2023-05-19T04:07:27.676Z,10.70
2023-05-19T04:09:55.084Z,10.90
2023-05-19T04:12:21.774Z,10.90
2023-05-19T04:14:48.517Z,11.00
2023-05-19T04:17:15.342Z,11.10
2023-05-19T04:19:42.785Z,11.10
2023-05-19T04:22:09.478Z,11.10
2023-05-19T04:24:36.190Z,11.20
2023-05-19T04:27:04.149Z,11.40
2023-05-19T04:29:31.898Z,11.30
2023-05-19T04:32:00.244Z,11.30
2023-05-19T04:34:28.012Z,11.60
2023-05-19T04:36:55.500Z,11.40
2023-05-19T04:41:49.363Z,11.40
2023-05-19T04:44:17.381Z,11.40
2023-05-19T04:46:44.478Z,11.50
2023-05-19T04:49:12.027Z,11.40
2023-05-19T04:51:40.745Z,11.50
2023-05-19T04:54:09.309Z,11.60
2023-05-19T04:56:36.110Z,11.80
2023-05-19T04:59:03.155Z,11.80
2023-05-19T05:01:30.626Z,11.80
2023-05-19T05:06:25.925Z,11.60
2023-05-19T05:08:53.227Z,11.90
2023-05-19T05:11:21.390Z,11.50
2023-05-19T05:13:49.035Z,11.80
2023-05-19T05:16:16.340Z,12.00
2023-05-19T05:18:44.980Z,12.00
2023-05-19T05:21:12.623Z,12.30
2023-05-19T05:23:39.947Z,12.00
2023-05-19T05:26:16.528Z,12.00
2023-05-19T05:28:43.971Z,12.00
2023-05-19T05:31:10.829Z,11.90
2023-05-19T05:33:38.614Z,12.60
2023-05-19T05:36:05.946Z,12.00
2023-05-19T05:38:32.801Z,12.10
2023-05-19T05:41:00.190Z,12.30
2023-05-19T05:43:26.946Z,12.50
2023-05-19T05:45:54.492Z,12.50
2023-05-19T05:48:21.890Z,12.70
2023-05-19T05:50:49.683Z,12.90
2023-05-19T05:53:18.898Z,13.10
2023-05-19T05:55:46.703Z,13.20
2023-05-19T05:58:14.967Z,13.30
2023-05-19T06:00:43.034Z,13.30
2023-05-19T06:03:10.724Z,13.40
2023-05-19T06:05:37.545Z,13.30
2023-05-19T06:08:04.613Z,13.50
2023-05-19T06:10:32.555Z,13.60
2023-05-19T06:12:59.506Z,13.80
2023-05-19T06:15:26.328Z,14.20
2023-05-19T06:17:53.945Z,14.50
2023-05-19T06:20:24.396Z,14.70
2023-05-19T06:22:51.064Z,14.80
2023-05-19T06:25:17.895Z,14.80
2023-05-19T06:27:44.774Z,14.90
2023-05-19T06:30:12.475Z,14.80
2023-05-19T06:32:39.592Z,14.90
2023-05-19T06:35:06.667Z,14.80
2023-05-19T06:37:34.036Z,14.90
2023-05-19T06:40:00.835Z,14.90
2023-05-19T06:42:27.578Z,14.90
2023-05-19T06:44:55.425Z,14.90
2023-05-19T06:47:22.188Z,15.00
2023-05-19T06:49:50.407Z,14.90
2023-05-19T06:52:17.680Z,15.10
2023-05-19T06:54:45.029Z,15.00
2023-05-19T06:57:11.693Z,15.40
2023-05-19T07:02:07.630Z,15.70
2023-05-19T07:04:34.413Z,15.70
2023-05-19T07:07:01.125Z,15.60
2023-05-19T07:09:27.876Z,15.70
2023-05-19T07:11:56.003Z,15.70
2023-05-19T07:14:22.741Z,15.90
2023-05-19T07:16:49.441Z,16.00
2023-05-19T07:21:45.743Z,16.60
2023-05-19T07:24:12.559Z,16.70
2023-05-19T07:26:39.778Z,16.80
2023-05-19T07:29:07.220Z,16.80
2023-05-19T07:31:33.972Z,16.80
2023-05-19T07:34:00.872Z,16.70
2023-05-19T07:36:27.644Z,16.80
2023-05-19T07:38:54.373Z,17.40
2023-05-19T07:43:49.225Z,17.70
2023-05-19T07:46:16.909Z,17.90
2023-05-19T07:48:44.922Z,18.50
2023-05-19T07:51:12.850Z,18.40
2023-05-19T07:53:39.627Z,18.60
2023-05-19T07:56:06.364Z,18.80
2023-05-19T07:58:33.200Z,19.00
2023-05-19T08:01:00.173Z,18.80
2023-05-19T08:03:27.711Z,18.90
2023-05-19T08:05:54.811Z,19.00
2023-05-19T08:08:21.706Z,18.80
2023-05-19T08:10:53.138Z,18.70
2023-05-19T08:13:20.460Z,19.20
2023-05-19T08:15:47.218Z,19.20
2023-05-19T08:18:14.023Z,19.30
2023-05-19T08:20:41.421Z,19.30
2023-05-19T08:23:08.096Z,19.00
2023-05-19T08:25:34.830Z,19.00
2023-05-19T08:28:01.605Z,18.90
2023-05-19T08:30:28.381Z,18.90
2023-05-19T08:32:55.221Z,18.90
2023-05-19T08:35:22.212Z,19.10
2023-05-19T08:37:49.736Z,19.10
2023-05-19T08:40:17.864Z,19.20
2023-05-19T08:42:45.165Z,19.10
2023-05-19T08:45:12.702Z,19.10
2023-05-19T08:47:41.165Z,19.00
2023-05-19T08:50:10.609Z,18.90
2023-05-19T08:52:51.849Z,18.80
2023-05-19T08:55:33.265Z,19.20
2023-05-19T08:58:01.429Z,19.80
2023-05-19T09:00:29.457Z,19.80
2023-05-19T09:03:05.994Z,20.30
2023-05-19T09:05:43.594Z,20.50
2023-05-19T09:08:10.416Z,20.70
2023-05-19T09:10:37.785Z,20.50
2023-05-19T09:13:05.525Z,20.60
2023-05-19T09:15:34.103Z,20.60
2023-05-19T09:18:08.542Z,20.90
2023-05-19T09:20:39.144Z,20.70
2023-05-19T09:23:06.073Z,20.60
2023-05-19T09:25:33.171Z,20.90
2023-05-19T09:28:01.246Z,20.50
2023-05-19T09:30:28.008Z,20.40
2023-05-19T09:32:55.107Z,20.40
2023-05-19T09:35:22.248Z,19.90
2023-05-19T09:37:49.563Z,20.10
2023-05-19T09:40:17.026Z,19.80
2023-05-19T09:42:44.059Z,20.00
2023-05-19T09:45:12.593Z,20.30
2023-05-19T09:47:41.445Z,20.40
2023-05-19T09:50:10.400Z,20.70
2023-05-19T09:52:38.026Z,20.30
2023-05-19T09:55:09.063Z,20.50
2023-05-19T09:57:36.978Z,20.70
2023-05-19T10:00:13.893Z,21.10
2023-05-19T10:02:43.824Z,21.10
2023-05-19T10:05:16.419Z,21.30
2023-05-19T10:07:47.865Z,20.90
2023-05-19T10:10:15.808Z,21.10
2023-05-19T10:12:43.530Z,21.10
2023-05-19T10:15:13.016Z,21.40
2023-05-19T10:17:41.860Z,21.80
2023-05-19T10:20:11.899Z,21.60
2023-05-19T10:22:39.455Z,21.50
2023-05-19T10:25:07.753Z,21.80
2023-05-19T10:27:37.557Z,21.70
2023-05-19T10:30:12.417Z,21.90
2023-05-19T10:32:44.316Z,20.90
2023-05-19T10:35:27.517Z,21.70
2023-05-19T10:38:00.546Z,22.20
2023-05-19T10:40:30.280Z,22.10
2023-05-19T10:43:16.362Z,21.80
2023-05-19T10:45:48.735Z,21.50
2023-05-19T10:48:17.256Z,21.70
2023-05-19T10:50:45.874Z,21.60
2023-05-19T10:53:17.664Z,21.50
2023-05-19T10:55:46.835Z,21.30
2023-05-19T10:58:14.212Z,22.30
2023-05-19T11:00:41.504Z,21.40
2023-05-19T11:03:17.223Z,21.70
2023-05-19T11:05:45.917Z,22.10
2023-05-19T11:08:13.361Z,22.00
2023-05-19T11:10:44.818Z,21.90
2023-05-19T11:13:22.664Z,22.10
2023-05-19T11:15:50.180Z,21.50
2023-05-19T11:18:20.354Z,20.80
2023-05-19T11:20:58.064Z,21.80
2023-05-19T11:23:26.403Z,22.10
2023-05-19T11:25:53.979Z,21.70
2023-05-19T11:28:25.454Z,22.20
2023-05-19T11:30:56.852Z,23.00
2023-05-19T11:33:26.544Z,23.00
2023-05-19T11:35:56.998Z,23.30
2023-05-19T11:38:24.183Z,22.70
2023-05-19T11:40:53.957Z,22.80
2023-05-19T11:43:23.432Z,22.80
2023-05-19T11:45:51.001Z,22.90
2023-05-19T11:48:21.437Z,22.80
2023-05-19T11:50:49.872Z,23.00
2023-05-19T11:53:19.367Z,22.20
2023-05-19T11:55:47.548Z,22.40
2023-05-19T11:58:15.290Z,22.40
2023-05-19T12:00:45.300Z,22.40
2023-05-19T12:03:13.158Z,22.40
2023-05-19T12:05:45.728Z,22.50
2023-05-19T12:08:14.254Z,22.70
2023-05-19T12:10:42.723Z,22.80
2023-05-19T12:13:10.580Z,23.50
2023-05-19T12:15:38.199Z,23.10
2023-05-19T12:18:05.504Z,24.10
2023-05-19T12:20:34.957Z,24.80
2023-05-19T12:23:03.005Z,25.10
2023-05-19T12:25:31.870Z,24.40
2023-05-19T12:28:00.074Z,23.60
2023-05-19T12:30:28.669Z,24.00
2023-05-19T12:32:57.590Z,25.40
2023-05-19T12:35:28.115Z,24.10
2023-05-19T12:37:55.724Z,24.10
2023-05-19T12:40:26.459Z,23.10
2023-05-19T12:42:58.410Z,23.20
2023-05-19T12:45:27.437Z,22.90
2023-05-19T12:47:55.015Z,23.80
2023-05-19T12:50:29.662Z,23.40
2023-05-19T12:52:58.984Z,23.40
2023-05-19T12:55:26.380Z,23.10
2023-05-19T12:57:56.538Z,23.70
2023-05-19T13:00:27.576Z,24.70
2023-05-19T13:02:57.500Z,24.60
2023-05-19T13:05:26.114Z,25.00
2023-05-19T13:07:57.371Z,25.00
2023-05-19T13:10:26.539Z,25.20
2023-05-19T13:12:55.150Z,24.30
2023-05-19T13:15:24.031Z,24.80
2023-05-19T13:17:51.506Z,25.00
2023-05-19T13:20:18.823Z,24.70
2023-05-19T13:22:46.743Z,23.40
2023-05-19T13:25:14.453Z,23.00
2023-05-19T13:27:41.830Z,22.80
2023-05-19T13:30:11.772Z,23.40
2023-05-19T13:32:39.888Z,22.70
2023-05-19T13:35:08.189Z,22.80
2023-05-19T13:37:35.756Z,22.50
2023-05-19T13:40:03.739Z,23.00
2023-05-19T13:42:32.435Z,22.30
2023-05-19T13:45:00.017Z,22.10
2023-05-19T13:47:28.009Z,22.10
2023-05-19T13:49:55.466Z,21.70
2023-05-19T13:52:23.166Z,21.80
2023-05-19T13:54:50.533Z,21.20
2023-05-19T13:57:18.263Z,21.20
2023-05-19T14:00:00.273Z,21.70
2023-05-19T14:02:30.768Z,22.30
2023-05-19T14:04:58.553Z,21.70
2023-05-19T14:07:25.973Z,22.20
2023-05-19T14:09:53.134Z,22.20
2023-05-19T14:12:27.826Z,21.90
2023-05-19T14:15:01.935Z,21.40
2023-05-19T14:17:29.861Z,21.80
2023-05-19T14:19:56.987Z,22.00
2023-05-19T14:22:24.374Z,23.30
2023-05-19T14:24:51.729Z,24.60
2023-05-19T14:27:19.090Z,23.50
2023-05-19T14:29:46.195Z,23.50
2023-05-19T14:32:13.757Z,22.00
2023-05-19T14:34:41.797Z,21.90
2023-05-19T14:37:08.952Z,21.50
2023-05-19T14:39:37.119Z,21.20
2023-05-19T14:42:03.966Z,21.80
2023-05-19T14:44:32.205Z,21.60
2023-05-19T14:46:59.714Z,21.60
2023-05-19T14:49:26.546Z,22.50
2023-05-19T14:51:53.890Z,23.60
2023-05-19T14:54:20.608Z,23.70
2023-05-19T14:56:47.427Z,23.10
2023-05-19T14:59:14.277Z,23.00
2023-05-19T15:01:41.121Z,22.30
2023-05-19T15:04:07.910Z,21.40
2023-05-19T15:06:34.735Z,20.90
2023-05-19T15:09:02.186Z,20.50
2023-05-19T15:11:29.435Z,20.60
2023-05-19T15:13:56.197Z,20.80
2023-05-19T15:16:22.981Z,20.20
2023-05-19T15:21:17.463Z,20.70
2023-05-19T15:23:44.197Z,22.80
2023-05-19T15:26:11.720Z,23.50
2023-05-19T15:28:38.502Z,25.20
2023-05-19T15:31:05.343Z,27.70
2023-05-19T15:33:32.060Z,27.80
2023-05-19T15:35:58.747Z,29.60
2023-05-19T15:38:26.543Z,30.50
2023-05-19T15:40:54.375Z,31.40
2023-05-19T15:43:21.786Z,31.20
2023-05-19T15:45:51.406Z,26.70
2023-05-19T15:48:18.460Z,24.50
2023-05-19T15:50:45.302Z,23.40
2023-05-19T15:53:12.120Z,23.20
2023-05-19T15:58:07.007Z,22.00
2023-05-19T16:00:34.644Z,21.70
2023-05-19T16:05:28.643Z,21.00
2023-05-19T16:07:55.566Z,20.70
2023-05-19T16:12:49.256Z,20.50
2023-05-19T16:15:16.080Z,21.70
2023-05-19T16:17:43.691Z,22.60
2023-05-19T16:20:11.487Z,23.50
2023-05-19T16:22:38.256Z,23.70
2023-05-19T16:25:06.263Z,22.90
2023-05-19T16:30:01.861Z,21.70
2023-05-19T16:32:28.545Z,20.80
2023-05-19T16:34:56.496Z,21.40
2023-05-19T16:39:50.166Z,20.50
2023-05-19T16:42:17.294Z,20.80
2023-05-19T16:47:10.962Z,20.30
2023-05-19T16:49:39.720Z,20.30
2023-05-19T16:52:07.358Z,19.70
2023-05-19T16:57:01.241Z,19.10
2023-05-19T16:59:27.929Z,19.40
2023-05-19T17:01:55.436Z,19.40
2023-05-19T17:04:22.186Z,21.00
2023-05-19T17:06:48.913Z,19.50
2023-05-19T17:09:16.252Z,19.00
2023-05-19T17:11:42.953Z,19.30
2023-05-19T17:14:09.849Z,16.70
2023-05-19T17:19:04.415Z,18.90
2023-05-19T17:21:31.215Z,19.20
2023-05-19T17:23:57.897Z,18.40
2023-05-19T17:26:25.789Z,18.80
2023-05-19T17:28:52.431Z,19.10
2023-05-19T17:31:19.156Z,18.60
2023-05-19T17:33:45.825Z,18.80
2023-05-19T17:36:12.723Z,18.70
2023-05-19T17:38:39.804Z,19.00
2023-05-19T17:41:09.293Z,18.60
2023-05-19T17:43:36.939Z,18.60
2023-05-19T17:46:03.979Z,18.40
2023-05-19T17:48:30.836Z,18.70
2023-05-19T17:50:57.834Z,18.70
2023-05-19T17:53:25.607Z,18.30
2023-05-19T17:55:56.613Z,18.10
2023-05-19T17:58:23.805Z,18.70
2023-05-19T18:00:51.799Z,18.50
2023-05-19T18:03:19.187Z,18.20
2023-05-19T18:05:46.744Z,17.80
2023-05-19T18:10:42.484Z,18.10
2023-05-19T18:13:13.243Z,17.60
2023-05-19T18:15:40.447Z,17.50
2023-05-19T18:18:09.782Z,17.70
2023-05-19T18:20:38.115Z,17.90
2023-05-19T18:23:05.662Z,17.50
2023-05-19T18:27:59.482Z,17.50
2023-05-19T18:30:26.158Z,17.40
2023-05-19T18:35:20.802Z,17.60
2023-05-19T18:45:09.244Z,17.00
2023-05-19T18:50:03.795Z,17.30
2023-05-19T18:52:31.258Z,17.20
2023-05-19T18:59:53.276Z,16.70
2023-05-19T19:09:43.066Z,16.70
2023-05-19T19:26:55.079Z,16.10
2023-05-19T19:44:09.187Z,15.90
2023-05-19T20:01:26.592Z,15.70
2023-05-19T20:18:38.852Z,15.60
2023-05-19T20:36:00.860Z,15.40
2023-05-19T20:53:10.961Z,15.30
2023-05-19T20:55:38.734Z,15.30
2023-05-19T21:05:27.571Z,15.20
2023-05-19T21:10:21.990Z,15.00
2023-05-19T21:20:10.834Z,15.00
2023-05-19T21:25:05.405Z,15.00
2023-05-19T21:27:34.817Z,14.70
2023-05-19T21:44:44.516Z,14.50
2023-05-19T21:52:06.677Z,14.40
2023-05-19T22:01:56.105Z,14.30
2023-05-19T22:11:52.057Z,14.80
2023-05-19T22:19:14.749Z,14.20
2023-05-19T22:21:41.757Z,14.60
2023-05-19T22:26:35.683Z,14.00
2023-05-19T22:33:57.262Z,13.90
2023-05-19T22:36:24.709Z,13.80
2023-05-19T22:38:52.914Z,13.70
2023-05-19T22:53:36.584Z,13.70
2023-05-19T23:10:45.996Z,13.60
2023-05-19T23:27:57.193Z,13.40
2023-05-19T23:45:09.141Z,13.50
